createdAt,value
2023-04-24T00:01:01.616Z,1.40
2023-04-24T00:03:37.547Z,1.00
2023-04-24T00:06:14.159Z,1.20
2023-04-24T00:08:49.656Z,1.30
2023-04-24T00:11:24.875Z,1.30
2023-04-24T00:14:00.248Z,1.23
2023-04-24T00:16:34.989Z,1.20
2023-04-24T00:19:09.727Z,1.20
2023-04-24T00:21:46.027Z,1.20
2023-04-24T00:24:20.845Z,1.50
2023-04-24T00:26:55.778Z,1.30
2023-04-24T00:29:31.248Z,1.20
2023-04-24T00:32:06.408Z,1.10
2023-04-24T00:34:42.705Z,1.15
2023-04-24T00:37:20.451Z,1.20
2023-04-24T00:39:58.088Z,1.00
2023-04-24T00:42:33.629Z,1.42
2023-04-24T00:45:08.972Z,1.10
2023-04-24T00:47:44.784Z,1.20
2023-04-24T00:50:22.191Z,1.33
2023-04-24T00:53:02.854Z,1.27
2023-04-24T00:55:38.033Z,1.10
2023-04-24T00:58:13.692Z,1.40
2023-04-24T01:00:48.220Z,1.50
2023-04-24T01:03:24.084Z,1.30
2023-04-24T01:06:00.619Z,1.17
2023-04-24T01:08:37.872Z,1.50
2023-04-24T01:11:12.340Z,1.38
2023-04-24T01:13:47.749Z,1.35
2023-04-24T01:16:23.641Z,1.50
2023-04-24T01:18:58.877Z,1.30
2023-04-24T01:21:33.401Z,1.33
2023-04-24T01:24:14.417Z,1.67
2023-04-24T01:26:49.494Z,1.52
2023-04-24T01:29:26.988Z,1.40
2023-04-24T01:32:03.662Z,1.58
2023-04-24T01:34:38.390Z,1.30
2023-04-24T01:37:13.344Z,1.30
2023-04-24T01:39:50.621Z,1.30
2023-04-24T01:42:25.964Z,1.08
2023-04-24T01:45:01.338Z,1.70
2023-04-24T01:47:38.702Z,1.95
2023-04-24T01:50:13.772Z,2.47
2023-04-24T01:52:48.238Z,2.40
2023-04-24T01:55:24.753Z,2.85
2023-04-24T01:58:02.008Z,2.30
2023-04-24T02:00:37.908Z,2.60
2023-04-24T02:03:12.464Z,2.55
2023-04-24T02:05:49.605Z,2.30
2023-04-24T02:08:24.689Z,2.50
2023-04-24T02:11:02.023Z,2.60
2023-04-24T02:13:36.763Z,2.50
2023-04-24T02:16:12.061Z,2.20
2023-04-24T02:18:47.276Z,2.40
2023-04-24T02:21:24.769Z,2.38
2023-04-24T02:23:59.493Z,2.35
2023-04-24T02:26:35.883Z,2.10
2023-04-24T02:29:10.595Z,2.40
2023-04-24T02:31:46.503Z,2.40
2023-04-24T02:34:22.652Z,2.55
2023-04-24T02:36:57.565Z,2.50
2023-04-24T02:39:32.396Z,2.20
2023-04-24T02:42:10.718Z,2.33
2023-04-24T02:44:45.203Z,2.70
2023-04-24T02:47:20.461Z,2.53
2023-04-24T02:49:57.051Z,2.10
2023-04-24T02:52:32.689Z,2.15
2023-04-24T02:55:07.090Z,2.13
2023-04-24T02:57:46.796Z,2.20
2023-04-24T03:00:21.984Z,1.80
2023-04-24T03:02:57.975Z,2.47
2023-04-24T03:05:33.655Z,2.17
2023-04-24T03:08:08.839Z,2.30
2023-04-24T03:10:44.811Z,2.38
2023-04-24T03:13:24.651Z,2.50
2023-04-24T03:15:59.120Z,2.65
2023-04-24T03:18:36.123Z,2.30
2023-04-24T03:21:13.356Z,2.55
2023-04-24T03:23:49.482Z,2.60
2023-04-24T03:26:23.942Z,2.85
2023-04-24T03:29:23.268Z,2.35
2023-04-24T03:31:58.697Z,2.50
2023-04-24T03:34:34.370Z,2.40
2023-04-24T03:37:08.845Z,2.65
2023-04-24T03:39:52.483Z,2.67
2023-04-24T03:42:31.694Z,2.17
2023-04-24T03:45:09.522Z,2.38
2023-04-24T03:47:46.896Z,2.80
2023-04-24T03:50:22.854Z,2.47
2023-04-24T03:53:01.457Z,2.55
2023-04-24T03:55:46.878Z,2.40
2023-04-24T03:58:21.828Z,2.70
2023-04-24T04:00:59.598Z,1.92
2023-04-24T04:04:10.724Z,2.13
2023-04-24T04:06:46.799Z,1.90
2023-04-24T04:09:21.497Z,2.90
2023-04-24T04:11:56.191Z,2.53
2023-04-24T04:14:31.266Z,2.60
2023-04-24T04:17:07.972Z,2.33
2023-04-24T04:19:43.890Z,2.70
2023-04-24T04:22:19.081Z,2.58
2023-04-24T04:24:57.178Z,2.60
2023-04-24T04:27:34.750Z,2.38
2023-04-24T04:30:15.136Z,2.78
2023-04-24T04:33:00.588Z,2.63
2023-04-24T04:35:36.242Z,3.05
2023-04-24T04:38:11.652Z,3.10
2023-04-24T04:40:56.959Z,2.70
2023-04-24T04:43:35.293Z,3.15
2023-04-24T04:46:11.135Z,3.50
2023-04-24T04:48:56.836Z,3.50
2023-04-24T04:51:32.844Z,3.60
2023-04-24T04:54:07.460Z,3.80
2023-04-24T04:56:43.339Z,3.10
2023-04-24T04:59:18.473Z,3.20
2023-04-24T05:01:54.696Z,3.65
2023-04-24T05:04:32.188Z,3.95
2023-04-24T05:07:08.402Z,4.07
2023-04-24T05:09:47.471Z,3.90
2023-04-24T05:12:21.841Z,3.53
2023-04-24T05:14:59.936Z,3.80
2023-04-24T05:17:35.028Z,3.75
2023-04-24T05:20:12.620Z,4.25
2023-04-24T05:22:47.769Z,4.13
2023-04-24T05:25:23.796Z,3.25
2023-04-24T05:28:03.944Z,3.83
2023-04-24T05:30:40.621Z,3.83
2023-04-24T05:33:17.638Z,4.18
2023-04-24T05:35:54.877Z,3.65
2023-04-24T05:38:30.526Z,3.50
2023-04-24T05:41:05.519Z,3.50
2023-04-24T05:43:39.814Z,3.45
2023-04-24T05:46:14.470Z,4.05
2023-04-24T05:48:49.544Z,3.38
2023-04-24T05:51:26.533Z,3.47
2023-04-24T05:54:04.366Z,3.50
2023-04-24T05:56:39.955Z,4.00
2023-04-24T05:59:16.118Z,3.70
2023-04-24T06:01:51.802Z,5.03
2023-04-24T06:04:28.653Z,4.00
2023-04-24T06:07:07.971Z,3.70
2023-04-24T06:09:44.009Z,3.55
2023-04-24T06:12:22.497Z,3.53
2023-04-24T06:15:03.673Z,3.47
2023-04-24T06:17:56.512Z,3.40
2023-04-24T06:20:32.338Z,5.88
2023-04-24T06:23:09.096Z,3.38
2023-04-24T06:25:44.802Z,3.80
2023-04-24T06:28:19.302Z,3.45
2023-04-24T06:30:54.616Z,3.67
2023-04-24T06:33:29.306Z,3.75
2023-04-24T06:36:03.618Z,3.75
2023-04-24T06:38:40.185Z,3.58
2023-04-24T06:41:16.220Z,3.42
2023-04-24T06:43:51.582Z,3.38
2023-04-24T06:46:26.699Z,3.17
2023-04-24T06:49:01.312Z,3.50
2023-04-24T06:51:37.883Z,3.22
2023-04-24T06:54:14.033Z,3.65
2023-04-24T06:56:50.435Z,3.67
2023-04-24T06:59:24.896Z,3.20
2023-04-24T07:02:00.130Z,3.50
2023-04-24T07:04:36.771Z,4.78
2023-04-24T07:07:12.275Z,4.05
2023-04-24T07:09:48.872Z,3.92
2023-04-24T07:12:24.871Z,4.10
2023-04-24T07:14:59.459Z,2.97
2023-04-24T07:17:33.897Z,3.47
2023-04-24T07:20:10.645Z,2.85
2023-04-24T07:22:45.745Z,3.03
2023-04-24T07:25:22.512Z,3.25
2023-04-24T07:27:57.428Z,3.20
2023-04-24T07:30:32.142Z,2.65
2023-04-24T07:33:07.384Z,2.83
2023-04-24T07:35:42.173Z,2.72
2023-04-24T07:38:16.599Z,2.83
2023-04-24T07:40:53.089Z,3.20
2023-04-24T07:43:34.444Z,3.38
2023-04-24T07:46:09.694Z,3.00
2023-04-24T07:48:44.086Z,2.63
2023-04-24T07:51:18.545Z,2.72
2023-04-24T07:53:53.959Z,2.50
2023-04-24T07:56:33.723Z,2.20
2023-04-24T07:59:08.743Z,2.65
2023-04-24T08:01:43.341Z,2.40
2023-04-24T08:04:21.637Z,2.30
2023-04-24T08:06:56.360Z,2.85
2023-04-24T08:09:30.844Z,2.70
2023-04-24T08:12:07.324Z,2.58
2023-04-24T08:14:43.679Z,3.15
2023-04-24T08:17:18.497Z,2.55
2023-04-24T08:20:01.740Z,2.90
2023-04-24T08:22:37.511Z,3.08
2023-04-24T08:25:13.239Z,2.80
2023-04-24T08:27:50.147Z,2.50
2023-04-24T08:30:25.230Z,2.80
2023-04-24T08:33:02.420Z,2.97
2023-04-24T08:35:37.992Z,3.35
2023-04-24T08:38:12.606Z,3.22
2023-04-24T08:40:48.558Z,3.20
2023-04-24T08:43:26.690Z,3.17
2023-04-24T08:46:06.051Z,6.25
2023-04-24T08:48:44.018Z,9.15
2023-04-24T08:51:20.543Z,4.90
2023-04-24T08:53:55.604Z,3.50
2023-04-24T08:56:31.546Z,3.70
2023-04-24T08:59:08.109Z,3.97
2023-04-24T09:01:44.702Z,3.80
2023-04-24T09:04:22.881Z,3.90
2023-04-24T09:06:58.197Z,4.20
2023-04-24T09:09:33.880Z,4.05
2023-04-24T09:12:08.663Z,4.45
2023-04-24T09:14:47.756Z,4.40
2023-04-24T09:17:25.779Z,4.60
2023-04-24T09:20:00.395Z,4.10
2023-04-24T09:22:35.952Z,4.00
2023-04-24T09:25:11.485Z,4.18
2023-04-24T09:27:49.099Z,3.90
2023-04-24T09:30:28.078Z,4.05
2023-04-24T09:33:18.887Z,4.10
2023-04-24T09:35:58.573Z,4.35
2023-04-24T09:38:43.400Z,4.47
2023-04-24T09:41:22.578Z,3.97
2023-04-24T09:43:56.844Z,4.15
2023-04-24T09:46:38.134Z,4.45
2023-04-24T09:49:20.650Z,4.25
2023-04-24T09:51:55.142Z,4.22
2023-04-24T09:54:29.516Z,4.10
2023-04-24T09:57:04.921Z,4.47
2023-04-24T09:59:40.494Z,4.82
2023-04-24T10:02:25.345Z,4.22
2023-04-24T10:05:04.453Z,4.07
2023-04-24T10:07:39.671Z,4.10
2023-04-24T10:10:15.072Z,3.53
2023-04-24T10:12:50.411Z,3.50
2023-04-24T10:15:24.943Z,4.22
2023-04-24T10:18:04.071Z,4.25
2023-04-24T10:20:40.346Z,3.70
2023-04-24T10:23:14.716Z,4.05
2023-04-24T10:25:51.181Z,3.78
2023-04-24T10:28:27.042Z,4.38
2023-04-24T10:31:03.486Z,4.30
2023-04-24T10:33:40.204Z,3.90
2023-04-24T10:36:16.090Z,4.18
2023-04-24T10:38:52.993Z,4.47
2023-04-24T10:41:31.627Z,4.13
2023-04-24T10:44:12.530Z,4.40
2023-04-24T10:46:50.193Z,4.53
2023-04-24T10:49:34.332Z,4.13
2023-04-24T10:52:10.957Z,3.30
2023-04-24T10:54:48.924Z,4.32
2023-04-24T10:57:36.398Z,3.75
2023-04-24T11:00:20.659Z,3.50
2023-04-24T11:03:00.147Z,3.50
2023-04-24T11:05:54.786Z,4.10
2023-04-24T11:08:32.976Z,3.67
2023-04-24T11:11:09.394Z,3.85
2023-04-24T11:14:03.595Z,3.70
2023-04-24T11:16:41.113Z,3.90
2023-04-24T11:19:17.886Z,4.18
2023-04-24T11:21:54.539Z,4.20
2023-04-24T11:24:44.934Z,3.53
2023-04-24T11:27:30.227Z,4.53
2023-04-24T11:30:08.726Z,3.90
2023-04-24T11:32:44.429Z,4.18
2023-04-24T11:35:21.388Z,3.40
2023-04-24T11:38:12.530Z,3.78
2023-04-24T11:40:53.500Z,3.95
2023-04-24T11:43:28.905Z,3.85
2023-04-24T11:46:07.332Z,4.00
2023-04-24T11:48:42.956Z,4.15
2023-04-24T11:51:18.205Z,3.83
2023-04-24T11:54:01.536Z,4.18
2023-04-24T11:56:42.137Z,3.78
2023-04-24T11:59:17.152Z,3.28
2023-04-24T12:01:53.004Z,4.00
2023-04-24T12:04:27.940Z,3.80
2023-04-24T12:07:07.751Z,4.03
2023-04-24T12:09:52.031Z,3.85
2023-04-24T12:12:30.983Z,4.25
2023-04-24T12:15:05.490Z,3.90
2023-04-24T12:17:41.506Z,4.10
2023-04-24T12:20:16.572Z,3.60
2023-04-24T12:22:51.700Z,3.53
2023-04-24T12:25:26.849Z,3.55
2023-04-24T12:28:16.064Z,4.20
2023-04-24T12:30:53.813Z,3.30
2023-04-24T12:33:32.188Z,4.07
2023-04-24T12:36:09.017Z,3.85
2023-04-24T12:38:49.026Z,3.75
2023-04-24T12:41:23.646Z,3.70
2023-04-24T12:44:00.519Z,3.85
2023-04-24T12:46:35.146Z,3.53
2023-04-24T12:49:10.654Z,3.50
2023-04-24T12:51:47.370Z,3.92
2023-04-24T12:54:21.728Z,3.67
2023-04-24T12:56:56.394Z,3.80
2023-04-24T12:59:33.756Z,3.78
2023-04-24T13:02:08.398Z,3.53
2023-04-24T13:04:43.864Z,3.72
2023-04-24T13:07:21.637Z,3.55
2023-04-24T13:09:57.053Z,3.70
2023-04-24T13:12:31.592Z,3.53
2023-04-24T13:15:08.693Z,3.53
2023-04-24T13:17:43.364Z,3.30
2023-04-24T13:20:18.630Z,3.53
2023-04-24T13:22:54.338Z,3.10
2023-04-24T13:25:29.290Z,3.55
2023-04-24T13:28:03.942Z,3.55
2023-04-24T13:30:41.906Z,3.53
2023-04-24T13:33:16.518Z,3.05
2023-04-24T13:35:51.147Z,3.22
2023-04-24T13:38:26.054Z,3.72
2023-04-24T13:41:01.807Z,3.60
2023-04-24T13:43:36.298Z,4.10
2023-04-24T13:46:16.838Z,3.58
2023-04-24T13:48:55.156Z,3.25
2023-04-24T13:51:30.972Z,3.50
2023-04-24T13:54:05.527Z,2.97
2023-04-24T13:56:40.145Z,3.22
2023-04-24T13:59:14.879Z,3.40
2023-04-24T14:01:54.167Z,3.42
2023-04-24T14:04:29.218Z,3.33
2023-04-24T14:07:03.596Z,3.08
2023-04-24T14:09:39.756Z,3.35
2023-04-24T14:12:16.768Z,3.40
2023-04-24T14:14:53.204Z,3.78
2023-04-24T14:17:30.139Z,4.00
2023-04-24T14:20:06.034Z,3.75
2023-04-24T14:22:41.561Z,3.85
2023-04-24T14:25:16.209Z,4.03
2023-04-24T14:27:50.570Z,4.30
2023-04-24T14:30:25.326Z,4.22
2023-04-24T14:33:03.757Z,4.55
2023-04-24T14:35:38.389Z,3.78
2023-04-24T14:38:13.276Z,3.97
2023-04-24T14:43:26.281Z,4.35
2023-04-24T14:46:00.933Z,4.00
2023-04-24T14:48:37.959Z,3.85
2023-04-24T14:51:12.479Z,3.90
2023-04-24T14:53:49.432Z,4.38
2023-04-24T14:56:23.997Z,3.75
2023-04-24T14:58:59.721Z,4.20
2023-04-24T15:01:34.464Z,4.15
2023-04-24T15:04:12.823Z,4.03
2023-04-24T15:06:47.432Z,3.78
2023-04-24T15:09:21.947Z,4.43
2023-04-24T15:11:56.615Z,3.80
2023-04-24T15:14:32.908Z,4.40
2023-04-24T15:17:07.518Z,4.25
2023-04-24T15:19:44.764Z,4.53
2023-04-24T15:22:19.392Z,3.90
2023-04-24T15:24:54.947Z,3.97
2023-04-24T15:27:31.111Z,4.60
2023-04-24T15:30:05.508Z,4.78
2023-04-24T15:32:40.579Z,4.10
2023-04-24T15:35:19.254Z,4.40
2023-04-24T15:37:53.902Z,4.63
2023-04-24T15:40:28.723Z,4.60
2023-04-24T15:43:03.267Z,4.57
2023-04-24T15:45:42.168Z,4.57
2023-04-24T15:48:16.813Z,4.53
2023-04-24T15:50:54.419Z,4.65
2023-04-24T15:53:31.903Z,4.38
2023-04-24T15:56:07.115Z,4.40
2023-04-24T15:58:42.349Z,4.35
2023-04-24T16:01:18.466Z,4.03
2023-04-24T16:03:55.872Z,4.57
2023-04-24T16:06:35.910Z,4.55
2023-04-24T16:09:11.220Z,4.50
2023-04-24T16:11:46.920Z,4.28
2023-04-24T16:14:22.441Z,4.03
2023-04-24T16:17:06.514Z,4.32
2023-04-24T16:19:41.126Z,4.47
2023-04-24T16:22:18.182Z,4.40
2023-04-24T16:24:52.803Z,4.20
2023-04-24T16:27:28.259Z,4.32
2023-04-24T16:30:02.896Z,4.55
2023-04-24T16:32:38.606Z,4.57
2023-04-24T16:35:14.167Z,4.35
2023-04-24T16:37:52.809Z,4.32
2023-04-24T16:40:27.612Z,4.30
2023-04-24T16:43:02.243Z,4.30
2023-04-24T16:45:40.184Z,4.20
2023-04-24T16:48:15.576Z,4.22
2023-04-24T16:50:50.155Z,4.57
2023-04-24T16:53:28.941Z,4.00
2023-04-24T16:56:03.646Z,3.88
2023-04-24T16:58:38.912Z,4.22
2023-04-24T17:01:13.443Z,3.80
2023-04-24T17:03:49.299Z,3.78
2023-04-24T17:06:24.160Z,3.45
2023-04-24T17:09:02.148Z,4.18
2023-04-24T17:11:36.679Z,4.10
2023-04-24T17:14:13.029Z,4.10
2023-04-24T17:16:47.730Z,3.80
2023-04-24T17:19:23.039Z,4.18
2023-04-24T17:21:58.220Z,4.30
2023-04-24T17:24:35.347Z,4.25
2023-04-24T17:27:14.851Z,4.07
2023-04-24T17:29:51.433Z,3.90
2023-04-24T17:32:26.276Z,4.38
2023-04-24T17:35:00.839Z,3.92
2023-04-24T17:37:36.255Z,3.92
2023-04-24T17:40:18.450Z,4.10
2023-04-24T17:42:53.654Z,3.53
2023-04-24T17:45:28.414Z,3.90
2023-04-24T17:48:03.134Z,3.85
2023-04-24T17:53:32.283Z,3.70
2023-04-24T17:56:10.027Z,3.85
2023-04-24T17:58:46.475Z,3.63
2023-04-24T18:01:23.563Z,3.40
2023-04-24T18:03:58.590Z,3.90
2023-04-24T18:06:34.335Z,4.13
2023-04-24T18:09:14.041Z,3.67
2023-04-24T18:11:55.008Z,3.80
2023-04-24T18:15:06.688Z,4.05
2023-04-24T18:17:54.406Z,3.83
2023-04-24T18:20:31.602Z,3.60
2023-04-24T18:23:07.030Z,3.80
2023-04-24T18:25:41.635Z,3.13
2023-04-24T18:28:20.445Z,3.38
2023-04-24T18:30:55.086Z,3.42
2023-04-24T18:33:34.697Z,3.63
2023-04-24T18:36:12.049Z,3.53
2023-04-24T18:38:47.322Z,3.17
2023-04-24T18:41:26.095Z,3.85
2023-04-24T18:44:03.570Z,3.50
2023-04-24T18:46:42.891Z,3.45
2023-04-24T18:49:17.450Z,3.78
2023-04-24T18:51:54.386Z,3.30
2023-04-24T18:54:43.955Z,3.20
2023-04-24T18:57:23.060Z,3.63
2023-04-24T19:00:03.378Z,3.47
2023-04-24T19:02:41.030Z,3.47
2023-04-24T19:05:19.274Z,3.47
2023-04-24T19:07:54.561Z,3.80
2023-04-24T19:10:29.762Z,3.20
2023-04-24T19:13:06.588Z,3.40
2023-04-24T19:15:44.061Z,3.70
2023-04-24T19:18:27.866Z,3.35
2023-04-24T19:21:03.320Z,3.30
2023-04-24T19:23:42.579Z,3.83
2023-04-24T19:26:18.255Z,3.97
2023-04-24T19:28:55.246Z,3.22
2023-04-24T19:31:35.448Z,4.82
2023-04-24T19:34:11.243Z,3.30
2023-04-24T19:36:48.028Z,3.65
2023-04-24T19:39:24.041Z,3.70
2023-04-24T19:41:59.548Z,3.28
2023-04-24T19:44:38.017Z,3.35
2023-04-24T19:47:16.694Z,3.55
2023-04-24T19:49:57.102Z,3.78
2023-04-24T19:52:34.414Z,3.22
2023-04-24T19:55:10.497Z,3.20
2023-04-24T19:57:48.430Z,3.50
2023-04-24T20:00:31.239Z,3.75
2023-04-24T20:03:09.287Z,3.22
2023-04-24T20:05:46.545Z,3.40
2023-04-24T20:08:24.930Z,3.95
2023-04-24T20:11:03.387Z,3.30
2023-04-24T20:13:38.803Z,3.55
2023-04-24T20:16:14.377Z,3.38
2023-04-24T20:18:51.690Z,3.53
2023-04-24T20:21:30.494Z,3.30
2023-04-24T20:24:07.087Z,3.40
2023-04-24T20:26:42.068Z,3.30
2023-04-24T20:29:17.862Z,3.13
2023-04-24T20:31:53.706Z,4.00
2023-04-24T20:34:30.460Z,3.60
2023-04-24T20:37:08.237Z,3.40
2023-04-24T20:39:44.900Z,3.65
2023-04-24T20:42:23.837Z,3.60
2023-04-24T20:44:58.704Z,3.85
2023-04-24T20:47:36.136Z,3.80
2023-04-24T20:50:17.557Z,4.20
2023-04-24T20:52:52.401Z,3.90
2023-04-24T20:55:27.287Z,3.85
2023-04-24T20:58:02.456Z,3.67
2023-04-24T21:00:39.548Z,3.55
2023-04-24T21:03:15.062Z,4.10
2023-04-24T21:05:51.481Z,4.10
2023-04-24T21:08:27.219Z,4.10
2023-04-24T21:11:03.232Z,4.40
2023-04-24T21:13:37.974Z,4.20
2023-04-24T21:16:12.818Z,4.00
2023-04-24T21:18:56.043Z,4.30
2023-04-24T21:21:34.112Z,3.85
2023-04-24T21:24:09.421Z,4.05
2023-04-24T21:26:44.757Z,4.10
2023-04-24T21:29:23.769Z,3.50
2023-04-24T21:31:59.254Z,3.80
2023-04-24T21:34:34.651Z,4.20
2023-04-24T21:37:10.929Z,4.18
2023-04-24T21:39:45.611Z,4.22
2023-04-24T21:42:21.054Z,3.70
2023-04-24T21:44:56.629Z,3.38
2023-04-24T21:47:36.928Z,3.55
2023-04-24T21:50:12.753Z,3.05
2023-04-24T21:52:50.089Z,3.92
2023-04-24T21:55:25.039Z,3.78
2023-04-24T21:57:59.526Z,3.95
2023-04-24T22:00:35.964Z,4.13
2023-04-24T22:03:12.048Z,3.65
2023-04-24T22:05:47.331Z,3.80
2023-04-24T22:08:28.506Z,3.63
2023-04-24T22:11:07.139Z,4.20
2023-04-24T22:13:48.570Z,3.90
2023-04-24T22:16:23.287Z,3.80
2023-04-24T22:19:00.216Z,4.20
2023-04-24T22:21:35.469Z,4.13
2023-04-24T22:24:13.144Z,4.18
2023-04-24T22:26:51.289Z,4.38
2023-04-24T22:29:28.455Z,4.20
2023-04-24T22:32:03.131Z,3.95
2023-04-24T22:34:38.708Z,4.20
2023-04-24T22:37:14.013Z,3.92
2023-04-24T22:39:51.548Z,4.43
2023-04-24T22:42:26.425Z,4.30
2023-04-24T22:45:01.740Z,4.55
2023-04-24T22:47:36.385Z,4.22
2023-04-24T22:50:12.197Z,3.70
2023-04-24T22:52:47.628Z,4.72
2023-04-24T22:55:24.936Z,4.03
2023-04-24T22:58:03.119Z,3.70
2023-04-24T23:00:38.168Z,3.85
2023-04-24T23:03:13.028Z,4.05
2023-04-24T23:05:48.541Z,4.03
2023-04-24T23:08:23.691Z,3.80
2023-04-24T23:10:59.899Z,4.30
2023-04-24T23:13:34.861Z,3.75
2023-04-24T23:16:10.871Z,3.65
2023-04-24T23:18:45.437Z,3.25
2023-04-24T23:21:19.938Z,3.67
2023-04-24T23:23:55.370Z,3.65
2023-04-24T23:26:32.716Z,3.55
2023-04-24T23:29:07.267Z,3.47
2023-04-24T23:31:41.576Z,3.20
2023-04-24T23:34:18.215Z,3.30
2023-04-24T23:36:54.276Z,3.25
2023-04-24T23:39:29.616Z,3.40
2023-04-24T23:42:06.009Z,3.38
2023-04-24T23:44:40.839Z,3.53
2023-04-24T23:47:16.216Z,3.67
2023-04-24T23:49:50.668Z,3.63
2023-04-24T23:52:26.840Z,3.88
2023-04-24T23:55:02.030Z,3.42
2023-04-24T23:57:39.285Z,3.83
